sensor_id;sensor_type;location;lat;lon;timestamp;P1;durP1;ratioP1;P2;durP2;ratioP2
5060;SDS011;2549;52.128;21.068;2023-07-08T00:01:17;5.93;;;3.50;;
5060;SDS011;2549;52.128;21.068;2023-07-08T00:03:46;3.93;;;2.90;;
5060;SDS011;2549;52.128;21.068;2023-07-08T00:06:18;4.57;;;3.00;;
5060;SDS011;2549;52.128;21.068;2023-07-08T00:08:46;6.23;;;3.10;;
5060;SDS011;2549;52.128;21.068;2023-07-08T00:11:14;6.67;;;3.60;;
5060;SDS011;2549;52.128;21.068;2023-07-08T00:13:42;3.40;;;2.83;;
5060;SDS011;2549;52.128;21.068;2023-07-08T00:16:13;4.80;;;3.27;;
5060;SDS011;2549;52.128;21.068;2023-07-08T00:18:41;5.40;;;3.37;;
5060;SDS011;2549;52.128;21.068;2023-07-08T00:21:12;3.30;;;3.00;;
5060;SDS011;2549;52.128;21.068;2023-07-08T00:23:44;4.53;;;3.10;;
5060;SDS011;2549;52.128;21.068;2023-07-08T00:26:17;3.63;;;2.90;;
5060;SDS011;2549;52.128;21.068;2023-07-08T00:28:49;6.50;;;4.03;;
5060;SDS011;2549;52.128;21.068;2023-07-08T00:31:16;4.47;;;3.20;;
5060;SDS011;2549;52.128;21.068;2023-07-08T00:33:43;3.93;;;3.23;;
5060;SDS011;2549;52.128;21.068;2023-07-08T00:36:14;4.47;;;3.43;;
5060;SDS011;2549;52.128;21.068;2023-07-08T00:38:43;11.73;;;3.00;;
5060;SDS011;2549;52.128;21.068;2023-07-08T00:41:18;3.23;;;2.93;;
5060;SDS011;2549;52.128;21.068;2023-07-08T00:43:49;5.77;;;3.87;;
5060;SDS011;2549;52.128;21.068;2023-07-08T00:49:00;4.67;;;3.20;;
5060;SDS011;2549;52.128;21.068;2023-07-08T00:51:39;4.73;;;3.70;;
5060;SDS011;2549;52.128;21.068;2023-07-08T00:54:16;12.70;;;3.50;;
5060;SDS011;2549;52.128;21.068;2023-07-08T01:01:51;6.77;;;3.87;;
5060;SDS011;2549;52.128;21.068;2023-07-08T01:06:55;6.60;;;3.30;;
5060;SDS011;2549;52.128;21.068;2023-07-08T01:09:28;4.20;;;3.60;;
5060;SDS011;2549;52.128;21.068;2023-07-08T01:12:02;5.33;;;3.53;;
5060;SDS011;2549;52.128;21.068;2023-07-08T01:14:34;7.40;;;4.07;;
5060;SDS011;2549;52.128;21.068;2023-07-08T01:17:03;8.07;;;3.83;;
5060;SDS011;2549;52.128;21.068;2023-07-08T01:19:30;4.87;;;3.60;;
5060;SDS011;2549;52.128;21.068;2023-07-08T01:24:29;5.33;;;3.93;;
5060;SDS011;2549;52.128;21.068;2023-07-08T01:26:58;4.90;;;3.30;;
5060;SDS011;2549;52.128;21.068;2023-07-08T01:29:27;4.97;;;3.50;;
5060;SDS011;2549;52.128;21.068;2023-07-08T01:31:55;6.20;;;3.50;;
5060;SDS011;2549;52.128;21.068;2023-07-08T01:34:23;6.33;;;5.17;;
5060;SDS011;2549;52.128;21.068;2023-07-08T01:36:51;7.47;;;3.93;;
5060;SDS011;2549;52.128;21.068;2023-07-08T01:39:22;5.03;;;4.10;;
5060;SDS011;2549;52.128;21.068;2023-07-08T01:41:50;4.43;;;3.93;;
5060;SDS011;2549;52.128;21.068;2023-07-08T01:44:27;7.03;;;3.60;;
5060;SDS011;2549;52.128;21.068;2023-07-08T01:47:00;6.33;;;3.90;;
5060;SDS011;2549;52.128;21.068;2023-07-08T01:49:32;9.13;;;4.63;;
5060;SDS011;2549;52.128;21.068;2023-07-08T01:52:02;4.70;;;3.77;;
5060;SDS011;2549;52.128;21.068;2023-07-08T01:54:29;5.67;;;4.03;;
5060;SDS011;2549;52.128;21.068;2023-07-08T01:56:57;4.10;;;3.10;;
5060;SDS011;2549;52.128;21.068;2023-07-08T01:59:24;4.20;;;3.80;;
5060;SDS011;2549;52.128;21.068;2023-07-08T02:01:51;4.77;;;3.50;;
5060;SDS011;2549;52.128;21.068;2023-07-08T02:04:22;4.20;;;3.80;;
5060;SDS011;2549;52.128;21.068;2023-07-08T02:06:54;10.23;;;4.30;;
5060;SDS011;2549;52.128;21.068;2023-07-08T02:09:21;6.40;;;4.50;;
5060;SDS011;2549;52.128;21.068;2023-07-08T02:11:48;7.37;;;3.63;;
5060;SDS011;2549;52.128;21.068;2023-07-08T02:14:16;4.80;;;4.30;;
5060;SDS011;2549;52.128;21.068;2023-07-08T02:16:43;6.23;;;4.23;;
5060;SDS011;2549;52.128;21.068;2023-07-08T02:19:10;5.70;;;3.83;;
5060;SDS011;2549;52.128;21.068;2023-07-08T02:21:38;20.20;;;4.37;;
5060;SDS011;2549;52.128;21.068;2023-07-08T02:24:05;3.90;;;3.37;;
5060;SDS011;2549;52.128;21.068;2023-07-08T02:26:34;4.17;;;3.77;;
5060;SDS011;2549;52.128;21.068;2023-07-08T02:29:01;3.83;;;3.53;;
5060;SDS011;2549;52.128;21.068;2023-07-08T02:31:28;4.33;;;3.73;;
5060;SDS011;2549;52.128;21.068;2023-07-08T02:33:55;6.53;;;3.90;;
5060;SDS011;2549;52.128;21.068;2023-07-08T02:36:22;6.90;;;4.17;;
5060;SDS011;2549;52.128;21.068;2023-07-08T02:38:49;5.70;;;3.50;;
5060;SDS011;2549;52.128;21.068;2023-07-08T02:41:16;3.90;;;3.50;;
5060;SDS011;2549;52.128;21.068;2023-07-08T02:43:43;6.20;;;3.80;;
5060;SDS011;2549;52.128;21.068;2023-07-08T02:46:10;4.13;;;3.73;;
5060;SDS011;2549;52.128;21.068;2023-07-08T02:48:37;4.43;;;3.77;;
5060;SDS011;2549;52.128;21.068;2023-07-08T02:51:05;8.07;;;4.40;;
5060;SDS011;2549;52.128;21.068;2023-07-08T02:53:32;10.10;;;4.00;;
5060;SDS011;2549;52.128;21.068;2023-07-08T02:55:59;4.30;;;3.87;;
5060;SDS011;2549;52.128;21.068;2023-07-08T02:58:26;7.97;;;3.60;;
5060;SDS011;2549;52.128;21.068;2023-07-08T03:00:54;13.97;;;4.17;;
5060;SDS011;2549;52.128;21.068;2023-07-08T03:03:22;4.27;;;3.97;;
5060;SDS011;2549;52.128;21.068;2023-07-08T03:08:27;4.83;;;4.20;;
5060;SDS011;2549;52.128;21.068;2023-07-08T03:10:56;7.30;;;4.07;;
5060;SDS011;2549;52.128;21.068;2023-07-08T03:13:24;5.90;;;3.73;;
5060;SDS011;2549;52.128;21.068;2023-07-08T03:15:52;6.27;;;3.93;;
5060;SDS011;2549;52.128;21.068;2023-07-08T03:18:21;7.70;;;4.00;;
5060;SDS011;2549;52.128;21.068;2023-07-08T03:20:50;9.53;;;4.30;;
5060;SDS011;2549;52.128;21.068;2023-07-08T03:23:17;6.30;;;3.80;;
5060;SDS011;2549;52.128;21.068;2023-07-08T03:25:44;7.63;;;3.33;;
5060;SDS011;2549;52.128;21.068;2023-07-08T03:28:11;5.73;;;3.83;;
5060;SDS011;2549;52.128;21.068;2023-07-08T03:30:41;4.40;;;4.00;;
5060;SDS011;2549;52.128;21.068;2023-07-08T03:33:09;6.33;;;4.50;;
5060;SDS011;2549;52.128;21.068;2023-07-08T03:35:37;4.50;;;4.00;;
5060;SDS011;2549;52.128;21.068;2023-07-08T03:38:07;4.23;;;3.53;;
5060;SDS011;2549;52.128;21.068;2023-07-08T03:40:34;5.90;;;4.37;;
5060;SDS011;2549;52.128;21.068;2023-07-08T03:43:01;5.10;;;3.73;;
5060;SDS011;2549;52.128;21.068;2023-07-08T03:45:27;6.33;;;4.90;;
5060;SDS011;2549;52.128;21.068;2023-07-08T03:47:54;4.90;;;3.70;;
5060;SDS011;2549;52.128;21.068;2023-07-08T03:50:22;11.17;;;4.40;;
5060;SDS011;2549;52.128;21.068;2023-07-08T03:52:51;4.37;;;3.97;;
5060;SDS011;2549;52.128;21.068;2023-07-08T03:55:20;6.10;;;4.17;;
5060;SDS011;2549;52.128;21.068;2023-07-08T03:57:48;3.70;;;3.40;;
5060;SDS011;2549;52.128;21.068;2023-07-08T04:00:15;7.57;;;4.40;;
5060;SDS011;2549;52.128;21.068;2023-07-08T04:02:42;6.07;;;4.10;;
5060;SDS011;2549;52.128;21.068;2023-07-08T04:05:14;6.40;;;4.33;;
5060;SDS011;2549;52.128;21.068;2023-07-08T04:07:42;10.83;;;4.70;;
5060;SDS011;2549;52.128;21.068;2023-07-08T04:10:09;10.00;;;4.43;;
5060;SDS011;2549;52.128;21.068;2023-07-08T04:12:36;8.53;;;4.20;;
5060;SDS011;2549;52.128;21.068;2023-07-08T04:15:04;11.70;;;4.80;;
5060;SDS011;2549;52.128;21.068;2023-07-08T04:17:34;6.20;;;4.30;;
5060;SDS011;2549;52.128;21.068;2023-07-08T04:20:09;7.53;;;4.90;;
5060;SDS011;2549;52.128;21.068;2023-07-08T04:22:37;7.37;;;4.73;;
5060;SDS011;2549;52.128;21.068;2023-07-08T04:25:04;14.30;;;5.30;;
5060;SDS011;2549;52.128;21.068;2023-07-08T04:27:32;7.23;;;4.97;;
5060;SDS011;2549;52.128;21.068;2023-07-08T04:29:59;5.70;;;4.43;;
5060;SDS011;2549;52.128;21.068;2023-07-08T04:32:26;5.30;;;4.30;;
5060;SDS011;2549;52.128;21.068;2023-07-08T04:34:53;12.03;;;5.17;;
5060;SDS011;2549;52.128;21.068;2023-07-08T04:37:20;13.47;;;5.00;;
5060;SDS011;2549;52.128;21.068;2023-07-08T04:39:47;10.80;;;4.20;;
5060;SDS011;2549;52.128;21.068;2023-07-08T04:42:14;4.77;;;3.50;;
5060;SDS011;2549;52.128;21.068;2023-07-08T04:44:43;5.30;;;4.17;;
5060;SDS011;2549;52.128;21.068;2023-07-08T04:47:12;7.30;;;4.40;;
5060;SDS011;2549;52.128;21.068;2023-07-08T04:49:40;5.57;;;4.10;;
5060;SDS011;2549;52.128;21.068;2023-07-08T04:52:10;6.53;;;4.17;;
5060;SDS011;2549;52.128;21.068;2023-07-08T04:54:37;7.97;;;3.77;;
5060;SDS011;2549;52.128;21.068;2023-07-08T04:57:04;4.13;;;3.80;;
5060;SDS011;2549;52.128;21.068;2023-07-08T04:59:31;9.47;;;4.30;;
5060;SDS011;2549;52.128;21.068;2023-07-08T05:02:01;6.10;;;3.80;;
5060;SDS011;2549;52.128;21.068;2023-07-08T05:04:28;13.20;;;4.20;;
5060;SDS011;2549;52.128;21.068;2023-07-08T05:06:55;8.57;;;4.80;;
5060;SDS011;2549;52.128;21.068;2023-07-08T05:09:22;5.20;;;3.90;;
5060;SDS011;2549;52.128;21.068;2023-07-08T05:11:52;6.90;;;4.10;;
5060;SDS011;2549;52.128;21.068;2023-07-08T05:14:19;6.70;;;4.43;;
5060;SDS011;2549;52.128;21.068;2023-07-08T05:16:46;4.10;;;3.70;;
5060;SDS011;2549;52.128;21.068;2023-07-08T05:19:14;24.07;;;4.53;;
5060;SDS011;2549;52.128;21.068;2023-07-08T05:21:41;4.10;;;3.57;;
5060;SDS011;2549;52.128;21.068;2023-07-08T05:24:09;8.00;;;3.87;;
5060;SDS011;2549;52.128;21.068;2023-07-08T05:26:36;3.77;;;3.33;;
5060;SDS011;2549;52.128;21.068;2023-07-08T05:29:03;14.83;;;3.23;;
5060;SDS011;2549;52.128;21.068;2023-07-08T05:31:32;3.43;;;3.10;;
5060;SDS011;2549;52.128;21.068;2023-07-08T05:34:03;4.53;;;3.73;;
5060;SDS011;2549;52.128;21.068;2023-07-08T05:36:30;5.37;;;3.53;;
5060;SDS011;2549;52.128;21.068;2023-07-08T05:38:57;3.60;;;3.30;;
5060;SDS011;2549;52.128;21.068;2023-07-08T05:41:24;4.60;;;3.73;;
5060;SDS011;2549;52.128;21.068;2023-07-08T05:43:51;3.77;;;3.47;;
5060;SDS011;2549;52.128;21.068;2023-07-08T05:46:18;4.20;;;3.20;;
5060;SDS011;2549;52.128;21.068;2023-07-08T05:48:45;8.30;;;3.30;;
5060;SDS011;2549;52.128;21.068;2023-07-08T05:51:12;4.90;;;3.60;;
5060;SDS011;2549;52.128;21.068;2023-07-08T05:53:38;4.00;;;3.63;;
5060;SDS011;2549;52.128;21.068;2023-07-08T05:56:05;3.47;;;3.17;;
5060;SDS011;2549;52.128;21.068;2023-07-08T05:58:32;3.87;;;3.00;;
5060;SDS011;2549;52.128;21.068;2023-07-08T06:00:59;5.07;;;3.50;;
5060;SDS011;2549;52.128;21.068;2023-07-08T06:03:27;4.37;;;3.00;;
5060;SDS011;2549;52.128;21.068;2023-07-08T06:05:54;4.60;;;2.80;;
5060;SDS011;2549;52.128;21.068;2023-07-08T06:08:21;3.77;;;3.40;;
5060;SDS011;2549;52.128;21.068;2023-07-08T06:10:48;4.20;;;3.00;;
5060;SDS011;2549;52.128;21.068;2023-07-08T06:13:16;4.00;;;2.60;;
5060;SDS011;2549;52.128;21.068;2023-07-08T06:15:43;5.87;;;2.63;;
5060;SDS011;2549;52.128;21.068;2023-07-08T06:18:10;3.73;;;3.30;;
5060;SDS011;2549;52.128;21.068;2023-07-08T06:20:37;4.20;;;2.33;;
5060;SDS011;2549;52.128;21.068;2023-07-08T06:23:04;3.77;;;3.33;;
5060;SDS011;2549;52.128;21.068;2023-07-08T06:25:31;6.80;;;2.40;;
5060;SDS011;2549;52.128;21.068;2023-07-08T06:27:58;4.10;;;3.00;;
5060;SDS011;2549;52.128;21.068;2023-07-08T06:30:25;5.10;;;2.50;;
5060;SDS011;2549;52.128;21.068;2023-07-08T06:32:52;5.13;;;2.30;;
5060;SDS011;2549;52.128;21.068;2023-07-08T06:35:19;2.90;;;2.70;;
5060;SDS011;2549;52.128;21.068;2023-07-08T06:37:46;10.83;;;3.10;;
5060;SDS011;2549;52.128;21.068;2023-07-08T06:40:13;6.70;;;2.53;;
5060;SDS011;2549;52.128;21.068;2023-07-08T06:42:40;3.00;;;2.20;;
5060;SDS011;2549;52.128;21.068;2023-07-08T06:45:07;2.47;;;2.30;;
5060;SDS011;2549;52.128;21.068;2023-07-08T06:47:34;2.90;;;2.10;;
5060;SDS011;2549;52.128;21.068;2023-07-08T06:50:01;5.33;;;1.97;;
5060;SDS011;2549;52.128;21.068;2023-07-08T06:52:28;3.33;;;2.50;;
5060;SDS011;2549;52.128;21.068;2023-07-08T06:55:01;3.70;;;2.63;;
5060;SDS011;2549;52.128;21.068;2023-07-08T06:57:30;2.17;;;1.97;;
5060;SDS011;2549;52.128;21.068;2023-07-08T06:59:58;5.80;;;2.10;;
5060;SDS011;2549;52.128;21.068;2023-07-08T07:02:24;9.53;;;2.00;;
5060;SDS011;2549;52.128;21.068;2023-07-08T07:04:52;1.80;;;1.67;;
5060;SDS011;2549;52.128;21.068;2023-07-08T07:07:19;4.70;;;2.17;;
5060;SDS011;2549;52.128;21.068;2023-07-08T07:09:46;2.13;;;1.93;;
5060;SDS011;2549;52.128;21.068;2023-07-08T07:12:13;3.37;;;2.17;;
5060;SDS011;2549;52.128;21.068;2023-07-08T07:14:39;7.60;;;2.03;;
5060;SDS011;2549;52.128;21.068;2023-07-08T07:17:09;2.67;;;1.90;;
5060;SDS011;2549;52.128;21.068;2023-07-08T07:19:36;3.77;;;2.23;;
5060;SDS011;2549;52.128;21.068;2023-07-08T07:22:03;7.97;;;2.03;;
5060;SDS011;2549;52.128;21.068;2023-07-08T07:24:31;1.93;;;1.83;;
5060;SDS011;2549;52.128;21.068;2023-07-08T07:26:58;3.77;;;2.27;;
5060;SDS011;2549;52.128;21.068;2023-07-08T07:29:25;2.90;;;2.30;;
5060;SDS011;2549;52.128;21.068;2023-07-08T07:31:52;4.97;;;1.53;;
5060;SDS011;2549;52.128;21.068;2023-07-08T07:34:21;4.80;;;2.10;;
5060;SDS011;2549;52.128;21.068;2023-07-08T07:36:48;2.70;;;1.90;;
5060;SDS011;2549;52.128;21.068;2023-07-08T07:39:15;1.70;;;1.60;;
5060;SDS011;2549;52.128;21.068;2023-07-08T07:41:41;2.00;;;1.80;;
5060;SDS011;2549;52.128;21.068;2023-07-08T07:44:08;2.67;;;1.83;;
5060;SDS011;2549;52.128;21.068;2023-07-08T07:46:35;1.70;;;1.60;;
5060;SDS011;2549;52.128;21.068;2023-07-08T07:49:02;1.47;;;1.37;;
5060;SDS011;2549;52.128;21.068;2023-07-08T07:51:29;1.83;;;1.70;;
5060;SDS011;2549;52.128;21.068;2023-07-08T07:53:56;1.53;;;1.50;;
5060;SDS011;2549;52.128;21.068;2023-07-08T07:56:23;1.73;;;1.60;;
5060;SDS011;2549;52.128;21.068;2023-07-08T07:58:51;2.40;;;2.00;;
5060;SDS011;2549;52.128;21.068;2023-07-08T08:01:18;2.33;;;1.70;;
5060;SDS011;2549;52.128;21.068;2023-07-08T08:03:46;2.20;;;1.30;;
5060;SDS011;2549;52.128;21.068;2023-07-08T08:06:20;2.87;;;1.50;;
5060;SDS011;2549;52.128;21.068;2023-07-08T08:08:47;1.80;;;1.70;;
5060;SDS011;2549;52.128;21.068;2023-07-08T08:11:15;4.20;;;1.33;;
5060;SDS011;2549;52.128;21.068;2023-07-08T08:13:42;2.10;;;1.83;;
5060;SDS011;2549;52.128;21.068;2023-07-08T08:16:09;1.73;;;1.63;;
5060;SDS011;2549;52.128;21.068;2023-07-08T08:18:36;1.50;;;1.40;;
5060;SDS011;2549;52.128;21.068;2023-07-08T08:21:03;4.17;;;2.27;;
5060;SDS011;2549;52.128;21.068;2023-07-08T08:23:29;3.50;;;2.00;;
5060;SDS011;2549;52.128;21.068;2023-07-08T08:25:56;1.97;;;1.53;;
5060;SDS011;2549;52.128;21.068;2023-07-08T08:28:24;1.87;;;1.57;;
5060;SDS011;2549;52.128;21.068;2023-07-08T08:30:51;3.80;;;2.20;;
5060;SDS011;2549;52.128;21.068;2023-07-08T08:33:18;1.90;;;1.80;;
5060;SDS011;2549;52.128;21.068;2023-07-08T08:35:45;2.20;;;1.80;;
5060;SDS011;2549;52.128;21.068;2023-07-08T08:38:12;8.53;;;2.20;;
5060;SDS011;2549;52.128;21.068;2023-07-08T08:40:40;3.73;;;2.17;;
5060;SDS011;2549;52.128;21.068;2023-07-08T08:43:27;2.57;;;1.80;;
5060;SDS011;2549;52.128;21.068;2023-07-08T08:48:58;4.10;;;1.53;;
5060;SDS011;2549;52.128;21.068;2023-07-08T08:51:26;2.40;;;1.80;;
5060;SDS011;2549;52.128;21.068;2023-07-08T08:53:57;1.43;;;1.33;;
5060;SDS011;2549;52.128;21.068;2023-07-08T08:56:29;1.83;;;1.73;;
5060;SDS011;2549;52.128;21.068;2023-07-08T08:59:07;1.93;;;1.70;;
5060;SDS011;2549;52.128;21.068;2023-07-08T09:01:42;1.63;;;1.47;;
5060;SDS011;2549;52.128;21.068;2023-07-08T09:06:41;3.03;;;2.50;;
5060;SDS011;2549;52.128;21.068;2023-07-08T09:09:20;1.60;;;1.47;;
5060;SDS011;2549;52.128;21.068;2023-07-08T09:11:55;1.77;;;1.67;;
5060;SDS011;2549;52.128;21.068;2023-07-08T09:14:29;2.50;;;1.50;;
5060;SDS011;2549;52.128;21.068;2023-07-08T09:19:33;3.73;;;1.73;;
5060;SDS011;2549;52.128;21.068;2023-07-08T09:22:07;1.83;;;1.73;;
5060;SDS011;2549;52.128;21.068;2023-07-08T09:24:48;1.00;;;1.00;;
5060;SDS011;2549;52.128;21.068;2023-07-08T09:27:27;4.13;;;1.90;;
5060;SDS011;2549;52.128;21.068;2023-07-08T09:29:55;2.20;;;1.53;;
5060;SDS011;2549;52.128;21.068;2023-07-08T09:32:24;3.63;;;1.53;;
5060;SDS011;2549;52.128;21.068;2023-07-08T09:34:54;2.57;;;1.87;;
5060;SDS011;2549;52.128;21.068;2023-07-08T09:37:29;7.93;;;2.00;;
5060;SDS011;2549;52.128;21.068;2023-07-08T09:39:58;4.50;;;1.70;;
5060;SDS011;2549;52.128;21.068;2023-07-08T09:42:41;3.90;;;1.60;;
5060;SDS011;2549;52.128;21.068;2023-07-08T09:45:14;1.63;;;1.53;;
5060;SDS011;2549;52.128;21.068;2023-07-08T09:47:44;7.63;;;1.73;;
5060;SDS011;2549;52.128;21.068;2023-07-08T09:50:16;2.00;;;1.63;;
5060;SDS011;2549;52.128;21.068;2023-07-08T09:52:55;2.70;;;1.50;;
5060;SDS011;2549;52.128;21.068;2023-07-08T09:55:24;1.57;;;1.47;;
5060;SDS011;2549;52.128;21.068;2023-07-08T09:57:52;4.10;;;2.00;;
5060;SDS011;2549;52.128;21.068;2023-07-08T10:00:27;7.40;;;1.87;;
5060;SDS011;2549;52.128;21.068;2023-07-08T10:03:04;1.50;;;1.50;;
5060;SDS011;2549;52.128;21.068;2023-07-08T10:05:39;3.20;;;1.80;;
5060;SDS011;2549;52.128;21.068;2023-07-08T10:08:14;2.27;;;1.60;;
5060;SDS011;2549;52.128;21.068;2023-07-08T10:10:43;2.83;;;1.63;;
5060;SDS011;2549;52.128;21.068;2023-07-08T10:13:18;5.93;;;2.00;;
5060;SDS011;2549;52.128;21.068;2023-07-08T10:15:51;3.30;;;1.93;;
5060;SDS011;2549;52.128;21.068;2023-07-08T10:18:24;2.40;;;1.63;;
5060;SDS011;2549;52.128;21.068;2023-07-08T10:21:43;2.13;;;1.60;;
5060;SDS011;2549;52.128;21.068;2023-07-08T10:23:51;5.60;;;2.30;;
5060;SDS011;2549;52.128;21.068;2023-07-08T10:26:27;1.90;;;1.67;;
5060;SDS011;2549;52.128;21.068;2023-07-08T10:37:11;1.67;;;1.57;;
5060;SDS011;2549;52.128;21.068;2023-07-08T10:45:41;2.00;;;1.90;;
5060;SDS011;2549;52.128;21.068;2023-07-08T11:07:38;2.83;;;2.63;;
5060;SDS011;2549;52.128;21.068;2023-07-08T11:13:06;2.93;;;1.63;;
5060;SDS011;2549;52.128;21.068;2023-07-08T11:15:58;1.80;;;1.60;;
5060;SDS011;2549;52.128;21.068;2023-07-08T11:18:50;2.50;;;1.80;;
5060;SDS011;2549;52.128;21.068;2023-07-08T11:21:31;1.87;;;1.77;;
5060;SDS011;2549;52.128;21.068;2023-07-08T11:26:53;4.43;;;2.40;;
5060;SDS011;2549;52.128;21.068;2023-07-08T11:31:50;2.00;;;1.90;;
5060;SDS011;2549;52.128;21.068;2023-07-08T11:34:18;2.80;;;2.10;;
5060;SDS011;2549;52.128;21.068;2023-07-08T11:36:46;5.00;;;1.60;;
5060;SDS011;2549;52.128;21.068;2023-07-08T11:42:19;1.83;;;1.73;;
5060;SDS011;2549;52.128;21.068;2023-07-08T11:44:48;1.80;;;1.70;;
5060;SDS011;2549;52.128;21.068;2023-07-08T11:47:26;2.17;;;2.07;;
5060;SDS011;2549;52.128;21.068;2023-07-08T11:52:55;2.10;;;1.50;;
5060;SDS011;2549;52.128;21.068;2023-07-08T11:55:38;1.70;;;1.60;;
5060;SDS011;2549;52.128;21.068;2023-07-08T11:58:29;2.17;;;1.97;;
5060;SDS011;2549;52.128;21.068;2023-07-08T12:03:49;2.70;;;1.97;;
5060;SDS011;2549;52.128;21.068;2023-07-08T12:08:54;1.53;;;1.43;;
5060;SDS011;2549;52.128;21.068;2023-07-08T12:11:40;1.80;;;1.70;;
5060;SDS011;2549;52.128;21.068;2023-07-08T12:14:10;5.03;;;1.70;;
5060;SDS011;2549;52.128;21.068;2023-07-08T12:16:39;3.80;;;2.20;;
5060;SDS011;2549;52.128;21.068;2023-07-08T12:19:06;3.70;;;1.53;;
5060;SDS011;2549;52.128;21.068;2023-07-08T12:21:37;2.10;;;2.00;;
5060;SDS011;2549;52.128;21.068;2023-07-08T12:24:05;2.10;;;2.00;;
5060;SDS011;2549;52.128;21.068;2023-07-08T12:26:35;2.10;;;2.00;;
5060;SDS011;2549;52.128;21.068;2023-07-08T12:29:02;5.63;;;2.23;;
5060;SDS011;2549;52.128;21.068;2023-07-08T12:31:30;2.30;;;2.10;;
5060;SDS011;2549;52.128;21.068;2023-07-08T12:33:58;2.63;;;1.63;;
5060;SDS011;2549;52.128;21.068;2023-07-08T12:36:27;2.00;;;1.77;;
5060;SDS011;2549;52.128;21.068;2023-07-08T12:38:56;2.73;;;2.53;;
5060;SDS011;2549;52.128;21.068;2023-07-08T12:41:28;3.03;;;2.07;;
5060;SDS011;2549;52.128;21.068;2023-07-08T12:43:58;3.33;;;2.07;;
5060;SDS011;2549;52.128;21.068;2023-07-08T12:46:27;1.97;;;1.80;;
5060;SDS011;2549;52.128;21.068;2023-07-08T12:48:55;2.63;;;1.83;;
5060;SDS011;2549;52.128;21.068;2023-07-08T12:51:23;2.80;;;2.10;;
5060;SDS011;2549;52.128;21.068;2023-07-08T12:53:52;2.47;;;2.27;;
5060;SDS011;2549;52.128;21.068;2023-07-08T12:56:21;5.20;;;1.73;;
5060;SDS011;2549;52.128;21.068;2023-07-08T12:58:52;2.60;;;2.40;;
5060;SDS011;2549;52.128;21.068;2023-07-08T13:01:23;2.37;;;2.17;;
5060;SDS011;2549;52.128;21.068;2023-07-08T13:03:54;3.17;;;1.70;;
5060;SDS011;2549;52.128;21.068;2023-07-08T13:06:27;2.07;;;1.87;;
5060;SDS011;2549;52.128;21.068;2023-07-08T13:09:00;3.87;;;2.60;;
5060;SDS011;2549;52.128;21.068;2023-07-08T13:11:48;1.83;;;1.73;;
5060;SDS011;2549;52.128;21.068;2023-07-08T13:14:18;4.30;;;2.30;;
5060;SDS011;2549;52.128;21.068;2023-07-08T13:16:50;2.77;;;2.50;;
5060;SDS011;2549;52.128;21.068;2023-07-08T13:19:17;3.47;;;1.33;;
5060;SDS011;2549;52.128;21.068;2023-07-08T13:21:48;4.80;;;2.00;;
5060;SDS011;2549;52.128;21.068;2023-07-08T13:24:16;2.70;;;2.13;;
5060;SDS011;2549;52.128;21.068;2023-07-08T13:26:47;1.80;;;1.70;;
5060;SDS011;2549;52.128;21.068;2023-07-08T13:29:16;2.70;;;2.00;;
5060;SDS011;2549;52.128;21.068;2023-07-08T13:31:47;2.10;;;2.00;;
5060;SDS011;2549;52.128;21.068;2023-07-08T13:34:20;4.00;;;2.30;;
5060;SDS011;2549;52.128;21.068;2023-07-08T13:36:49;2.33;;;2.13;;
5060;SDS011;2549;52.128;21.068;2023-07-08T13:39:22;2.90;;;2.20;;
5060;SDS011;2549;52.128;21.068;2023-07-08T13:41:54;1.90;;;1.80;;
5060;SDS011;2549;52.128;21.068;2023-07-08T13:44:22;2.20;;;1.90;;
5060;SDS011;2549;52.128;21.068;2023-07-08T13:49:22;7.83;;;1.93;;
5060;SDS011;2549;52.128;21.068;2023-07-08T13:51:51;2.20;;;2.10;;
5060;SDS011;2549;52.128;21.068;2023-07-08T13:54:22;7.20;;;2.80;;
5060;SDS011;2549;52.128;21.068;2023-07-08T13:56:50;1.90;;;1.70;;
5060;SDS011;2549;52.128;21.068;2023-07-08T13:59:21;7.70;;;1.60;;
5060;SDS011;2549;52.128;21.068;2023-07-08T14:01:50;2.50;;;2.30;;
5060;SDS011;2549;52.128;21.068;2023-07-08T14:04:21;4.80;;;2.40;;
5060;SDS011;2549;52.128;21.068;2023-07-08T14:06:55;2.50;;;2.30;;
5060;SDS011;2549;52.128;21.068;2023-07-08T14:09:22;3.87;;;2.27;;
5060;SDS011;2549;52.128;21.068;2023-07-08T14:11:50;1.97;;;1.80;;
5060;SDS011;2549;52.128;21.068;2023-07-08T14:14:18;2.50;;;1.90;;
5060;SDS011;2549;52.128;21.068;2023-07-08T14:16:46;1.70;;;1.60;;
5060;SDS011;2549;52.128;21.068;2023-07-08T14:19:26;2.30;;;2.10;;
5060;SDS011;2549;52.128;21.068;2023-07-08T14:21:59;2.07;;;1.93;;
5060;SDS011;2549;52.128;21.068;2023-07-08T14:24:28;4.73;;;1.90;;
5060;SDS011;2549;52.128;21.068;2023-07-08T14:26:55;2.20;;;2.00;;
5060;SDS011;2549;52.128;21.068;2023-07-08T14:33:03;4.20;;;2.00;;
5060;SDS011;2549;52.128;21.068;2023-07-08T14:35:32;4.07;;;2.73;;
5060;SDS011;2549;52.128;21.068;2023-07-08T14:37:59;2.80;;;1.80;;
5060;SDS011;2549;52.128;21.068;2023-07-08T14:40:33;2.53;;;2.20;;
5060;SDS011;2549;52.128;21.068;2023-07-08T14:43:04;3.20;;;2.20;;
5060;SDS011;2549;52.128;21.068;2023-07-08T14:45:50;2.93;;;1.60;;
5060;SDS011;2549;52.128;21.068;2023-07-08T14:48:20;2.00;;;1.90;;
5060;SDS011;2549;52.128;21.068;2023-07-08T14:50:50;3.70;;;2.10;;
5060;SDS011;2549;52.128;21.068;2023-07-08T14:53:17;2.07;;;1.97;;
5060;SDS011;2549;52.128;21.068;2023-07-08T14:55:45;2.37;;;2.27;;
5060;SDS011;2549;52.128;21.068;2023-07-08T15:00:50;2.20;;;1.97;;
5060;SDS011;2549;52.128;21.068;2023-07-08T15:03:18;5.23;;;2.03;;
5060;SDS011;2549;52.128;21.068;2023-07-08T15:05:45;2.37;;;2.27;;
5060;SDS011;2549;52.128;21.068;2023-07-08T15:08:12;2.43;;;2.23;;
5060;SDS011;2549;52.128;21.068;2023-07-08T15:10:39;3.53;;;1.90;;
5060;SDS011;2549;52.128;21.068;2023-07-08T15:13:13;1.90;;;1.80;;
5060;SDS011;2549;52.128;21.068;2023-07-08T15:15:41;1.83;;;1.73;;
5060;SDS011;2549;52.128;21.068;2023-07-08T15:18:13;2.50;;;1.90;;
5060;SDS011;2549;52.128;21.068;2023-07-08T15:20:43;2.80;;;2.20;;
5060;SDS011;2549;52.128;21.068;2023-07-08T15:23:10;2.30;;;2.20;;
5060;SDS011;2549;52.128;21.068;2023-07-08T15:25:42;2.53;;;2.33;;
5060;SDS011;2549;52.128;21.068;2023-07-08T15:28:14;2.00;;;1.90;;
5060;SDS011;2549;52.128;21.068;2023-07-08T15:30:45;2.73;;;2.23;;
5060;SDS011;2549;52.128;21.068;2023-07-08T15:33:14;2.20;;;2.10;;
5060;SDS011;2549;52.128;21.068;2023-07-08T15:35:42;2.70;;;2.50;;
5060;SDS011;2549;52.128;21.068;2023-07-08T15:38:10;3.00;;;1.90;;
5060;SDS011;2549;52.128;21.068;2023-07-08T15:40:37;3.83;;;2.10;;
5060;SDS011;2549;52.128;21.068;2023-07-08T15:43:05;3.23;;;2.03;;
5060;SDS011;2549;52.128;21.068;2023-07-08T15:45:40;7.00;;;2.27;;
5060;SDS011;2549;52.128;21.068;2023-07-08T15:48:14;1.70;;;1.60;;
5060;SDS011;2549;52.128;21.068;2023-07-08T15:50:41;2.10;;;2.00;;
5060;SDS011;2549;52.128;21.068;2023-07-08T15:53:08;1.93;;;1.83;;
5060;SDS011;2549;52.128;21.068;2023-07-08T15:55:38;1.90;;;1.80;;
5060;SDS011;2549;52.128;21.068;2023-07-08T15:58:20;3.43;;;2.30;;
5060;SDS011;2549;52.128;21.068;2023-07-08T16:00:53;5.67;;;2.30;;
5060;SDS011;2549;52.128;21.068;2023-07-08T16:03:25;2.23;;;2.10;;
5060;SDS011;2549;52.128;21.068;2023-07-08T16:05:55;3.40;;;2.43;;
5060;SDS011;2549;52.128;21.068;2023-07-08T16:08:23;4.77;;;2.40;;
5060;SDS011;2549;52.128;21.068;2023-07-08T16:10:56;2.13;;;1.90;;
5060;SDS011;2549;52.128;21.068;2023-07-08T16:13:26;4.00;;;2.13;;
5060;SDS011;2549;52.128;21.068;2023-07-08T16:15:55;2.07;;;1.97;;
5060;SDS011;2549;52.128;21.068;2023-07-08T16:18:22;2.33;;;2.23;;
5060;SDS011;2549;52.128;21.068;2023-07-08T16:20:51;2.20;;;2.00;;
5060;SDS011;2549;52.128;21.068;2023-07-08T16:23:18;5.03;;;1.80;;
5060;SDS011;2549;52.128;21.068;2023-07-08T16:25:46;2.03;;;1.93;;
5060;SDS011;2549;52.128;21.068;2023-07-08T16:28:21;2.13;;;1.87;;
5060;SDS011;2549;52.128;21.068;2023-07-08T16:30:52;4.83;;;2.30;;
5060;SDS011;2549;52.128;21.068;2023-07-08T16:33:21;2.50;;;2.00;;
5060;SDS011;2549;52.128;21.068;2023-07-08T16:35:48;5.67;;;1.80;;
5060;SDS011;2549;52.128;21.068;2023-07-08T16:38:15;2.53;;;2.07;;
5060;SDS011;2549;52.128;21.068;2023-07-08T16:40:42;3.87;;;2.03;;